sensor_id;sensor_type;location;lat;lon;timestamp;temperature;humidity
64620;DHT22;51029;51.058;13.826;2023-04-29T00:00:39;11.70;99.90
64620;DHT22;51029;51.058;13.826;2023-04-29T00:03:05;11.60;99.90
64620;DHT22;51029;51.058;13.826;2023-04-29T00:05:30;11.60;99.90
64620;DHT22;51029;51.058;13.826;2023-04-29T00:07:56;11.50;99.90
64620;DHT22;51029;51.058;13.826;2023-04-29T00:10:22;11.70;99.90
64620;DHT22;51029;51.058;13.826;2023-04-29T00:12:47;11.70;99.90
64620;DHT22;51029;51.058;13.826;2023-04-29T00:15:16;11.70;99.90
64620;DHT22;51029;51.058;13.826;2023-04-29T00:17:41;11.80;99.90
64620;DHT22;51029;51.058;13.826;2023-04-29T00:20:07;11.70;99.90
64620;DHT22;51029;51.058;13.826;2023-04-29T00:22:33;11.70;99.90
64620;DHT22;51029;51.058;13.826;2023-04-29T00:24:59;11.80;99.90
64620;DHT22;51029;51.058;13.826;2023-04-29T00:27:25;11.80;99.90
64620;DHT22;51029;51.058;13.826;2023-04-29T00:29:50;11.80;99.90
64620;DHT22;51029;51.058;13.826;2023-04-29T00:32:16;11.70;99.90
64620;DHT22;51029;51.058;13.826;2023-04-29T00:34:41;11.70;99.90
64620;DHT22;51029;51.058;13.826;2023-04-29T00:37:07;11.80;99.90
64620;DHT22;51029;51.058;13.826;2023-04-29T00:39:32;11.90;99.90
64620;DHT22;51029;51.058;13.826;2023-04-29T00:41:58;11.80;99.90
64620;DHT22;51029;51.058;13.826;2023-04-29T00:44:23;11.90;99.90
64620;DHT22;51029;51.058;13.826;2023-04-29T00:46:49;11.70;99.90
64620;DHT22;51029;51.058;13.826;2023-04-29T00:49:14;11.70;99.90
64620;DHT22;51029;51.058;13.826;2023-04-29T00:51:41;11.70;99.90
64620;DHT22;51029;51.058;13.826;2023-04-29T00:54:07;11.80;99.90
64620;DHT22;51029;51.058;13.826;2023-04-29T00:56:34;11.70;99.90
64620;DHT22;51029;51.058;13.826;2023-04-29T00:59:01;11.70;99.90
64620;DHT22;51029;51.058;13.826;2023-04-29T01:01:27;11.70;99.90
64620;DHT22;51029;51.058;13.826;2023-04-29T01:03:53;11.60;99.90
64620;DHT22;51029;51.058;13.826;2023-04-29T01:09:31;11.60;99.90
64620;DHT22;51029;51.058;13.826;2023-04-29T01:12:05;11.70;99.90
64620;DHT22;51029;51.058;13.826;2023-04-29T01:14:32;11.70;99.90
64620;DHT22;51029;51.058;13.826;2023-04-29T01:17:09;11.70;99.90
64620;DHT22;51029;51.058;13.826;2023-04-29T01:19:44;11.60;99.90
64620;DHT22;51029;51.058;13.826;2023-04-29T01:22:12;11.60;99.90
64620;DHT22;51029;51.058;13.826;2023-04-29T01:24:39;11.60;99.90
64620;DHT22;51029;51.058;13.826;2023-04-29T01:27:29;11.50;99.90
64620;DHT22;51029;51.058;13.826;2023-04-29T01:35:29;11.60;99.90
64620;DHT22;51029;51.058;13.826;2023-04-29T01:41:18;11.50;99.90
64620;DHT22;51029;51.058;13.826;2023-04-29T01:43:49;11.50;99.90
64620;DHT22;51029;51.058;13.826;2023-04-29T01:46:17;11.60;99.90
64620;DHT22;51029;51.058;13.826;2023-04-29T01:48:45;11.50;99.90
64620;DHT22;51029;51.058;13.826;2023-04-29T01:51:12;11.50;99.90
64620;DHT22;51029;51.058;13.826;2023-04-29T01:53:37;11.60;99.90
64620;DHT22;51029;51.058;13.826;2023-04-29T01:56:06;11.50;99.90
64620;DHT22;51029;51.058;13.826;2023-04-29T01:58:31;11.50;99.90
64620;DHT22;51029;51.058;13.826;2023-04-29T02:00:57;11.50;99.90
64620;DHT22;51029;51.058;13.826;2023-04-29T02:03:22;11.50;99.90
64620;DHT22;51029;51.058;13.826;2023-04-29T02:05:48;11.40;99.90
64620;DHT22;51029;51.058;13.826;2023-04-29T02:08:15;11.30;99.90
64620;DHT22;51029;51.058;13.826;2023-04-29T02:10:41;11.40;99.90
64620;DHT22;51029;51.058;13.826;2023-04-29T02:13:07;11.30;99.90
64620;DHT22;51029;51.058;13.826;2023-04-29T02:15:32;11.30;99.90
64620;DHT22;51029;51.058;13.826;2023-04-29T02:17:58;11.30;99.90
64620;DHT22;51029;51.058;13.826;2023-04-29T02:20:23;11.30;99.90
64620;DHT22;51029;51.058;13.826;2023-04-29T02:22:49;11.30;99.90
64620;DHT22;51029;51.058;13.826;2023-04-29T02:25:14;11.30;99.90
64620;DHT22;51029;51.058;13.826;2023-04-29T02:27:40;11.20;99.90
64620;DHT22;51029;51.058;13.826;2023-04-29T02:30:06;11.30;99.90
64620;DHT22;51029;51.058;13.826;2023-04-29T02:32:32;11.20;99.90
64620;DHT22;51029;51.058;13.826;2023-04-29T02:34:58;11.20;99.90
64620;DHT22;51029;51.058;13.826;2023-04-29T02:37:23;11.20;99.90
64620;DHT22;51029;51.058;13.826;2023-04-29T02:39:49;11.30;99.90
64620;DHT22;51029;51.058;13.826;2023-04-29T02:42:14;11.30;99.90
64620;DHT22;51029;51.058;13.826;2023-04-29T02:44:40;11.30;99.90
64620;DHT22;51029;51.058;13.826;2023-04-29T02:47:06;11.30;99.90
64620;DHT22;51029;51.058;13.826;2023-04-29T02:49:32;11.20;99.90
64620;DHT22;51029;51.058;13.826;2023-04-29T02:51:57;11.30;99.90
64620;DHT22;51029;51.058;13.826;2023-04-29T02:54:23;11.30;99.90
64620;DHT22;51029;51.058;13.826;2023-04-29T02:56:49;11.30;99.90
64620;DHT22;51029;51.058;13.826;2023-04-29T02:59:14;11.30;99.90
64620;DHT22;51029;51.058;13.826;2023-04-29T03:01:40;11.30;99.90
64620;DHT22;51029;51.058;13.826;2023-04-29T03:04:05;11.30;99.90
64620;DHT22;51029;51.058;13.826;2023-04-29T03:06:31;11.40;99.90
64620;DHT22;51029;51.058;13.826;2023-04-29T03:08:57;11.40;99.90
64620;DHT22;51029;51.058;13.826;2023-04-29T03:11:22;11.30;99.90
64620;DHT22;51029;51.058;13.826;2023-04-29T03:13:51;11.40;99.90
64620;DHT22;51029;51.058;13.826;2023-04-29T03:16:16;11.30;99.90
64620;DHT22;51029;51.058;13.826;2023-04-29T03:18:43;11.30;99.90
64620;DHT22;51029;51.058;13.826;2023-04-29T03:21:09;11.40;99.90
64620;DHT22;51029;51.058;13.826;2023-04-29T03:23:35;11.40;99.90
64620;DHT22;51029;51.058;13.826;2023-04-29T03:26:00;11.40;99.90
64620;DHT22;51029;51.058;13.826;2023-04-29T03:28:26;11.40;99.90
64620;DHT22;51029;51.058;13.826;2023-04-29T03:30:52;11.40;99.90
64620;DHT22;51029;51.058;13.826;2023-04-29T03:33:17;11.40;99.90
64620;DHT22;51029;51.058;13.826;2023-04-29T03:35:43;11.40;99.90
64620;DHT22;51029;51.058;13.826;2023-04-29T03:38:10;11.40;99.90
64620;DHT22;51029;51.058;13.826;2023-04-29T03:40:36;11.50;99.90
64620;DHT22;51029;51.058;13.826;2023-04-29T03:43:01;11.50;99.90
64620;DHT22;51029;51.058;13.826;2023-04-29T03:45:28;11.40;99.90
64620;DHT22;51029;51.058;13.826;2023-04-29T03:47:53;11.40;99.90
64620;DHT22;51029;51.058;13.826;2023-04-29T03:50:19;11.50;99.90
64620;DHT22;51029;51.058;13.826;2023-04-29T03:52:45;11.50;99.90
64620;DHT22;51029;51.058;13.826;2023-04-29T03:55:10;11.60;99.90
64620;DHT22;51029;51.058;13.826;2023-04-29T03:57:37;11.60;99.90
64620;DHT22;51029;51.058;13.826;2023-04-29T04:00:03;11.60;99.90
64620;DHT22;51029;51.058;13.826;2023-04-29T04:02:28;11.60;99.90
64620;DHT22;51029;51.058;13.826;2023-04-29T04:04:54;11.60;99.90
64620;DHT22;51029;51.058;13.826;2023-04-29T04:07:20;11.60;99.90
64620;DHT22;51029;51.058;13.826;2023-04-29T04:09:45;11.60;99.90
64620;DHT22;51029;51.058;13.826;2023-04-29T04:12:11;11.60;99.90
64620;DHT22;51029;51.058;13.826;2023-04-29T04:14:36;11.70;99.90
64620;DHT22;51029;51.058;13.826;2023-04-29T04:17:02;11.70;99.90
64620;DHT22;51029;51.058;13.826;2023-04-29T04:19:29;11.80;99.90
64620;DHT22;51029;51.058;13.826;2023-04-29T04:21:55;11.80;99.90
64620;DHT22;51029;51.058;13.826;2023-04-29T04:24:21;11.80;99.90
64620;DHT22;51029;51.058;13.826;2023-04-29T04:26:47;11.80;99.90
64620;DHT22;51029;51.058;13.826;2023-04-29T04:29:12;11.90;99.90
64620;DHT22;51029;51.058;13.826;2023-04-29T04:31:38;11.90;99.90
64620;DHT22;51029;51.058;13.826;2023-04-29T04:34:03;12.00;99.90
64620;DHT22;51029;51.058;13.826;2023-04-29T04:36:29;12.10;99.90
64620;DHT22;51029;51.058;13.826;2023-04-29T04:38:55;12.10;99.90
64620;DHT22;51029;51.058;13.826;2023-04-29T04:41:20;12.20;99.90
64620;DHT22;51029;51.058;13.826;2023-04-29T04:43:46;12.30;99.90
64620;DHT22;51029;51.058;13.826;2023-04-29T04:46:13;12.30;99.90
64620;DHT22;51029;51.058;13.826;2023-04-29T04:48:39;12.30;99.90
64620;DHT22;51029;51.058;13.826;2023-04-29T04:51:12;12.30;99.90
64620;DHT22;51029;51.058;13.826;2023-04-29T04:53:38;12.20;99.90
64620;DHT22;51029;51.058;13.826;2023-04-29T04:56:04;12.20;99.90
64620;DHT22;51029;51.058;13.826;2023-04-29T04:58:31;12.20;99.90
64620;DHT22;51029;51.058;13.826;2023-04-29T05:00:57;12.20;99.90
64620;DHT22;51029;51.058;13.826;2023-04-29T05:03:22;12.20;99.90
64620;DHT22;51029;51.058;13.826;2023-04-29T05:05:59;12.10;99.90
64620;DHT22;51029;51.058;13.826;2023-04-29T05:08:25;12.20;99.90
64620;DHT22;51029;51.058;13.826;2023-04-29T05:10:51;12.20;99.90
64620;DHT22;51029;51.058;13.826;2023-04-29T05:13:17;12.20;99.90
64620;DHT22;51029;51.058;13.826;2023-04-29T05:15:44;12.30;99.90
64620;DHT22;51029;51.058;13.826;2023-04-29T05:18:10;12.30;99.90
64620;DHT22;51029;51.058;13.826;2023-04-29T05:20:36;12.30;99.90
64620;DHT22;51029;51.058;13.826;2023-04-29T05:23:02;12.30;99.90
64620;DHT22;51029;51.058;13.826;2023-04-29T05:25:28;12.40;99.90
64620;DHT22;51029;51.058;13.826;2023-04-29T05:27:54;12.30;99.90
64620;DHT22;51029;51.058;13.826;2023-04-29T05:30:19;12.40;99.90
64620;DHT22;51029;51.058;13.826;2023-04-29T05:32:45;12.40;99.90
64620;DHT22;51029;51.058;13.826;2023-04-29T05:35:11;12.40;99.90
64620;DHT22;51029;51.058;13.826;2023-04-29T05:37:36;12.30;99.90
64620;DHT22;51029;51.058;13.826;2023-04-29T05:40:02;12.40;99.90
64620;DHT22;51029;51.058;13.826;2023-04-29T05:42:28;12.50;99.90
64620;DHT22;51029;51.058;13.826;2023-04-29T05:44:54;12.60;99.90
64620;DHT22;51029;51.058;13.826;2023-04-29T05:47:19;12.60;99.90
64620;DHT22;51029;51.058;13.826;2023-04-29T05:49:45;12.70;99.90
64620;DHT22;51029;51.058;13.826;2023-04-29T05:52:10;12.90;99.90
64620;DHT22;51029;51.058;13.826;2023-04-29T05:54:36;13.20;99.90
64620;DHT22;51029;51.058;13.826;2023-04-29T05:57:01;13.30;99.90
64620;DHT22;51029;51.058;13.826;2023-04-29T05:59:31;13.40;99.90
64620;DHT22;51029;51.058;13.826;2023-04-29T06:01:58;13.30;99.90
64620;DHT22;51029;51.058;13.826;2023-04-29T06:04:24;13.30;99.90
64620;DHT22;51029;51.058;13.826;2023-04-29T06:06:51;13.30;99.90
64620;DHT22;51029;51.058;13.826;2023-04-29T06:09:20;13.40;99.90
64620;DHT22;51029;51.058;13.826;2023-04-29T06:11:46;13.70;99.90
64620;DHT22;51029;51.058;13.826;2023-04-29T06:14:12;14.00;99.90
64620;DHT22;51029;51.058;13.826;2023-04-29T06:16:38;14.40;99.90
64620;DHT22;51029;51.058;13.826;2023-04-29T06:19:04;14.70;99.90
64620;DHT22;51029;51.058;13.826;2023-04-29T06:21:29;14.80;99.90
64620;DHT22;51029;51.058;13.826;2023-04-29T06:23:56;14.90;99.90
64620;DHT22;51029;51.058;13.826;2023-04-29T06:26:21;14.80;99.90
64620;DHT22;51029;51.058;13.826;2023-04-29T06:28:47;14.70;99.90
64620;DHT22;51029;51.058;13.826;2023-04-29T06:31:13;14.70;99.90
64620;DHT22;51029;51.058;13.826;2023-04-29T06:33:38;14.70;99.90
64620;DHT22;51029;51.058;13.826;2023-04-29T06:36:04;14.80;99.90
64620;DHT22;51029;51.058;13.826;2023-04-29T06:38:30;14.80;99.90
64620;DHT22;51029;51.058;13.826;2023-04-29T06:40:56;15.00;99.90
64620;DHT22;51029;51.058;13.826;2023-04-29T06:43:30;15.10;99.90
64620;DHT22;51029;51.058;13.826;2023-04-29T06:45:56;15.20;99.90
64620;DHT22;51029;51.058;13.826;2023-04-29T06:48:22;15.20;99.90
64620;DHT22;51029;51.058;13.826;2023-04-29T06:53:14;15.40;99.90
64620;DHT22;51029;51.058;13.826;2023-04-29T06:55:39;15.20;99.90
64620;DHT22;51029;51.058;13.826;2023-04-29T06:58:05;14.90;99.90
64620;DHT22;51029;51.058;13.826;2023-04-29T07:00:31;14.80;99.90
64620;DHT22;51029;51.058;13.826;2023-04-29T07:02:56;14.60;99.90
64620;DHT22;51029;51.058;13.826;2023-04-29T07:05:22;14.40;99.90
64620;DHT22;51029;51.058;13.826;2023-04-29T07:07:48;14.30;99.90
64620;DHT22;51029;51.058;13.826;2023-04-29T07:10:14;14.30;99.90
64620;DHT22;51029;51.058;13.826;2023-04-29T07:12:39;14.20;99.90
64620;DHT22;51029;51.058;13.826;2023-04-29T07:15:06;14.20;99.90
64620;DHT22;51029;51.058;13.826;2023-04-29T07:17:31;14.10;99.90
64620;DHT22;51029;51.058;13.826;2023-04-29T07:19:57;14.20;99.90
64620;DHT22;51029;51.058;13.826;2023-04-29T07:22:22;14.20;99.90
64620;DHT22;51029;51.058;13.826;2023-04-29T07:24:48;14.20;99.90
64620;DHT22;51029;51.058;13.826;2023-04-29T07:27:17;14.10;99.90
64620;DHT22;51029;51.058;13.826;2023-04-29T07:29:42;14.00;99.90
64620;DHT22;51029;51.058;13.826;2023-04-29T07:32:08;14.00;99.90
64620;DHT22;51029;51.058;13.826;2023-04-29T07:34:33;14.00;99.90
64620;DHT22;51029;51.058;13.826;2023-04-29T07:36:59;13.90;99.90
64620;DHT22;51029;51.058;13.826;2023-04-29T07:39:24;13.80;99.90
64620;DHT22;51029;51.058;13.826;2023-04-29T07:41:50;13.70;99.90
64620;DHT22;51029;51.058;13.826;2023-04-29T07:44:16;13.60;99.90
64620;DHT22;51029;51.058;13.826;2023-04-29T07:46:41;13.60;99.90
64620;DHT22;51029;51.058;13.826;2023-04-29T07:49:07;13.70;99.90
64620;DHT22;51029;51.058;13.826;2023-04-29T07:51:33;13.90;99.90
64620;DHT22;51029;51.058;13.826;2023-04-29T07:53:58;13.90;99.90
64620;DHT22;51029;51.058;13.826;2023-04-29T07:56:24;14.10;99.90
64620;DHT22;51029;51.058;13.826;2023-04-29T07:58:50;14.20;99.90
64620;DHT22;51029;51.058;13.826;2023-04-29T08:01:15;14.20;99.90
64620;DHT22;51029;51.058;13.826;2023-04-29T08:03:41;14.20;99.90
64620;DHT22;51029;51.058;13.826;2023-04-29T08:06:07;14.10;99.90
64620;DHT22;51029;51.058;13.826;2023-04-29T08:08:33;14.10;99.90
64620;DHT22;51029;51.058;13.826;2023-04-29T08:10:58;14.10;99.90
64620;DHT22;51029;51.058;13.826;2023-04-29T08:13:24;14.20;99.90
64620;DHT22;51029;51.058;13.826;2023-04-29T08:15:50;14.20;99.90
64620;DHT22;51029;51.058;13.826;2023-04-29T08:18:16;14.20;99.90
64620;DHT22;51029;51.058;13.826;2023-04-29T08:20:42;14.20;99.90
64620;DHT22;51029;51.058;13.826;2023-04-29T08:23:08;14.40;99.90
64620;DHT22;51029;51.058;13.826;2023-04-29T08:25:33;14.50;99.90
64620;DHT22;51029;51.058;13.826;2023-04-29T08:27:59;14.70;99.90
64620;DHT22;51029;51.058;13.826;2023-04-29T08:30:24;14.90;99.90
64620;DHT22;51029;51.058;13.826;2023-04-29T08:32:50;15.00;99.90
64620;DHT22;51029;51.058;13.826;2023-04-29T08:35:15;14.90;99.90
64620;DHT22;51029;51.058;13.826;2023-04-29T08:37:41;14.90;99.90
64620;DHT22;51029;51.058;13.826;2023-04-29T08:40:08;14.90;99.90
64620;DHT22;51029;51.058;13.826;2023-04-29T08:42:35;14.80;99.90
64620;DHT22;51029;51.058;13.826;2023-04-29T08:45:02;14.80;99.90
64620;DHT22;51029;51.058;13.826;2023-04-29T08:47:31;14.60;99.90
64620;DHT22;51029;51.058;13.826;2023-04-29T08:50:01;14.40;99.90
64620;DHT22;51029;51.058;13.826;2023-04-29T08:52:29;14.10;99.90
64620;DHT22;51029;51.058;13.826;2023-04-29T08:54:54;14.10;99.90
64620;DHT22;51029;51.058;13.826;2023-04-29T08:57:20;14.10;99.90
64620;DHT22;51029;51.058;13.826;2023-04-29T08:59:47;14.00;99.90
64620;DHT22;51029;51.058;13.826;2023-04-29T09:02:15;14.00;99.90
64620;DHT22;51029;51.058;13.826;2023-04-29T09:05:09;14.00;99.90
64620;DHT22;51029;51.058;13.826;2023-04-29T09:07:36;13.90;99.90
64620;DHT22;51029;51.058;13.826;2023-04-29T09:10:07;13.90;99.90
64620;DHT22;51029;51.058;13.826;2023-04-29T09:12:32;14.00;99.90
64620;DHT22;51029;51.058;13.826;2023-04-29T09:14:58;14.00;99.90
64620;DHT22;51029;51.058;13.826;2023-04-29T09:17:41;14.00;99.90
64620;DHT22;51029;51.058;13.826;2023-04-29T09:25:17;13.80;99.90
64620;DHT22;51029;51.058;13.826;2023-04-29T09:27:43;13.80;99.90
64620;DHT22;51029;51.058;13.826;2023-04-29T09:30:08;14.00;99.90
64620;DHT22;51029;51.058;13.826;2023-04-29T09:32:35;14.00;99.90
64620;DHT22;51029;51.058;13.826;2023-04-29T09:35:22;14.10;99.90
64620;DHT22;51029;51.058;13.826;2023-04-29T09:37:52;14.20;99.90
64620;DHT22;51029;51.058;13.826;2023-04-29T09:40:31;14.10;99.90
64620;DHT22;51029;51.058;13.826;2023-04-29T09:42:57;14.10;99.90
64620;DHT22;51029;51.058;13.826;2023-04-29T09:45:33;14.10;99.90
64620;DHT22;51029;51.058;13.826;2023-04-29T09:48:04;14.30;99.90
64620;DHT22;51029;51.058;13.826;2023-04-29T09:50:34;14.70;99.90
64620;DHT22;51029;51.058;13.826;2023-04-29T09:53:04;14.70;99.90
64620;DHT22;51029;51.058;13.826;2023-04-29T09:55:30;14.70;99.90
64620;DHT22;51029;51.058;13.826;2023-04-29T09:57:56;14.60;99.90
64620;DHT22;51029;51.058;13.826;2023-04-29T10:00:22;14.70;99.90
64620;DHT22;51029;51.058;13.826;2023-04-29T10:02:48;14.80;99.90
64620;DHT22;51029;51.058;13.826;2023-04-29T10:05:15;14.90;99.90
64620;DHT22;51029;51.058;13.826;2023-04-29T10:07:41;14.70;99.90
64620;DHT22;51029;51.058;13.826;2023-04-29T10:10:08;14.80;99.90
64620;DHT22;51029;51.058;13.826;2023-04-29T10:12:36;14.90;99.90
64620;DHT22;51029;51.058;13.826;2023-04-29T10:17:57;15.10;99.90
64620;DHT22;51029;51.058;13.826;2023-04-29T10:20:24;15.30;99.90
64620;DHT22;51029;51.058;13.826;2023-04-29T10:22:52;15.40;99.90
64620;DHT22;51029;51.058;13.826;2023-04-29T10:25:20;15.50;99.90
64620;DHT22;51029;51.058;13.826;2023-04-29T10:27:47;15.50;99.90
64620;DHT22;51029;51.058;13.826;2023-04-29T10:30:14;15.40;99.90
64620;DHT22;51029;51.058;13.826;2023-04-29T10:32:41;15.40;99.90
64620;DHT22;51029;51.058;13.826;2023-04-29T10:35:09;15.30;99.90
64620;DHT22;51029;51.058;13.826;2023-04-29T10:37:38;15.10;99.90
64620;DHT22;51029;51.058;13.826;2023-04-29T10:42:52;14.60;99.90
64620;DHT22;51029;51.058;13.826;2023-04-29T10:45:30;14.60;99.90
64620;DHT22;51029;51.058;13.826;2023-04-29T10:50:39;14.90;99.90
64620;DHT22;51029;51.058;13.826;2023-04-29T10:53:08;15.10;99.90
64620;DHT22;51029;51.058;13.826;2023-04-29T10:55:37;15.10;99.90
64620;DHT22;51029;51.058;13.826;2023-04-29T10:58:03;15.50;99.90
64620;DHT22;51029;51.058;13.826;2023-04-29T11:00:33;15.80;99.90
64620;DHT22;51029;51.058;13.826;2023-04-29T11:03:01;15.80;99.90
64620;DHT22;51029;51.058;13.826;2023-04-29T11:05:30;15.60;99.90
64620;DHT22;51029;51.058;13.826;2023-04-29T11:08:20;15.60;99.90
64620;DHT22;51029;51.058;13.826;2023-04-29T11:10:52;16.10;99.90
64620;DHT22;51029;51.058;13.826;2023-04-29T11:13:24;16.70;99.90
64620;DHT22;51029;51.058;13.826;2023-04-29T11:16:24;16.90;99.90
64620;DHT22;51029;51.058;13.826;2023-04-29T11:21:36;16.20;99.90
64620;DHT22;51029;51.058;13.826;2023-04-29T11:24:03;15.70;99.90
64620;DHT22;51029;51.058;13.826;2023-04-29T11:26:31;15.40;99.90
64620;DHT22;51029;51.058;13.826;2023-04-29T11:28:56;15.40;99.90
64620;DHT22;51029;51.058;13.826;2023-04-29T11:31:35;15.10;99.90
64620;DHT22;51029;51.058;13.826;2023-04-29T11:34:03;14.70;99.90
64620;DHT22;51029;51.058;13.826;2023-04-29T11:36:31;14.80;99.90
64620;DHT22;51029;51.058;13.826;2023-04-29T11:38:59;15.40;99.90
64620;DHT22;51029;51.058;13.826;2023-04-29T11:41:26;16.10;99.90
64620;DHT22;51029;51.058;13.826;2023-04-29T11:43:56;16.90;99.90
64620;DHT22;51029;51.058;13.826;2023-04-29T11:46:22;16.80;99.90
64620;DHT22;51029;51.058;13.826;2023-04-29T11:48:48;16.90;99.90
64620;DHT22;51029;51.058;13.826;2023-04-29T11:51:15;16.70;99.90
64620;DHT22;51029;51.058;13.826;2023-04-29T11:53:40;16.70;99.90
64620;DHT22;51029;51.058;13.826;2023-04-29T11:56:08;16.70;99.90
64620;DHT22;51029;51.058;13.826;2023-04-29T11:58:33;17.30;99.90
64620;DHT22;51029;51.058;13.826;2023-04-29T12:00:59;18.80;99.90
64620;DHT22;51029;51.058;13.826;2023-04-29T12:03:25;18.70;99.90
64620;DHT22;51029;51.058;13.826;2023-04-29T12:05:54;18.30;99.90
64620;DHT22;51029;51.058;13.826;2023-04-29T12:08:20;17.60;99.90
64620;DHT22;51029;51.058;13.826;2023-04-29T12:10:50;17.10;99.90
64620;DHT22;51029;51.058;13.826;2023-04-29T12:13:17;16.90;99.90
64620;DHT22;51029;51.058;13.826;2023-04-29T12:15:44;16.40;99.90
64620;DHT22;51029;51.058;13.826;2023-04-29T12:18:11;17.10;99.90
64620;DHT22;51029;51.058;13.826;2023-04-29T12:20:37;16.90;99.90
64620;DHT22;51029;51.058;13.826;2023-04-29T12:23:13;16.50;99.90
64620;DHT22;51029;51.058;13.826;2023-04-29T12:25:40;16.30;99.90
64620;DHT22;51029;51.058;13.826;2023-04-29T12:28:13;16.20;99.90
64620;DHT22;51029;51.058;13.826;2023-04-29T12:30:39;16.10;99.90
64620;DHT22;51029;51.058;13.826;2023-04-29T12:33:07;16.10;99.90
64620;DHT22;51029;51.058;13.826;2023-04-29T12:35:34;15.90;99.90
64620;DHT22;51029;51.058;13.826;2023-04-29T12:37:59;15.70;99.90
64620;DHT22;51029;51.058;13.826;2023-04-29T12:40:25;15.50;99.90
64620;DHT22;51029;51.058;13.826;2023-04-29T12:42:54;15.60;99.90
64620;DHT22;51029;51.058;13.826;2023-04-29T12:45:26;15.50;99.90
64620;DHT22;51029;51.058;13.826;2023-04-29T12:47:55;15.00;99.90
64620;DHT22;51029;51.058;13.826;2023-04-29T12:50:33;15.00;99.90
64620;DHT22;51029;51.058;13.826;2023-04-29T12:52:59;15.10;99.90
64620;DHT22;51029;51.058;13.826;2023-04-29T12:55:25;15.40;99.90
64620;DHT22;51029;51.058;13.826;2023-04-29T12:57:51;15.40;99.90
64620;DHT22;51029;51.058;13.826;2023-04-29T13:00:17;14.90;99.90
64620;DHT22;51029;51.058;13.826;2023-04-29T13:02:45;14.40;99.90
64620;DHT22;51029;51.058;13.826;2023-04-29T13:05:10;14.00;99.90
64620;DHT22;51029;51.058;13.826;2023-04-29T13:07:37;13.60;99.90
64620;DHT22;51029;51.058;13.826;2023-04-29T13:10:03;13.70;99.90
64620;DHT22;51029;51.058;13.826;2023-04-29T13:12:31;13.70;99.90
64620;DHT22;51029;51.058;13.826;2023-04-29T13:14:56;13.50;99.90
64620;DHT22;51029;51.058;13.826;2023-04-29T13:17:22;13.40;99.90
64620;DHT22;51029;51.058;13.826;2023-04-29T13:19:48;13.30;99.90
64620;DHT22;51029;51.058;13.826;2023-04-29T13:22:13;13.30;99.90
64620;DHT22;51029;51.058;13.826;2023-04-29T13:24:39;13.10;99.90
64620;DHT22;51029;51.058;13.826;2023-04-29T13:27:04;13.00;99.90
64620;DHT22;51029;51.058;13.826;2023-04-29T13:29:30;13.10;99.90
64620;DHT22;51029;51.058;13.826;2023-04-29T13:31:55;13.10;99.90
64620;DHT22;51029;51.058;13.826;2023-04-29T13:34:21;13.00;99.90
64620;DHT22;51029;51.058;13.826;2023-04-29T13:36:46;12.80;99.90
64620;DHT22;51029;51.058;13.826;2023-04-29T13:39:12;12.80;99.90
64620;DHT22;51029;51.058;13.826;2023-04-29T13:41:38;12.60;99.90
64620;DHT22;51029;51.058;13.826;2023-04-29T13:44:03;12.30;99.90
64620;DHT22;51029;51.058;13.826;2023-04-29T13:46:29;12.30;99.90
64620;DHT22;51029;51.058;13.826;2023-04-29T13:48:56;12.10;99.90
64620;DHT22;51029;51.058;13.826;2023-04-29T13:51:22;12.00;99.90
64620;DHT22;51029;51.058;13.826;2023-04-29T13:53:47;11.90;99.90
64620;DHT22;51029;51.058;13.826;2023-04-29T13:56:13;11.90;99.90
64620;DHT22;51029;51.058;13.826;2023-04-29T13:58:38;11.90;99.90
64620;DHT22;51029;51.058;13.826;2023-04-29T14:01:06;11.80;99.90
64620;DHT22;51029;51.058;13.826;2023-04-29T14:03:31;11.90;99.90
64620;DHT22;51029;51.058;13.826;2023-04-29T14:05:57;11.80;99.90
64620;DHT22;51029;51.058;13.826;2023-04-29T14:08:22;11.70;99.90
64620;DHT22;51029;51.058;13.826;2023-04-29T14:10:48;11.70;99.90
64620;DHT22;51029;51.058;13.826;2023-04-29T14:13:13;11.90;99.90
64620;DHT22;51029;51.058;13.826;2023-04-29T14:15:39;11.90;99.90
64620;DHT22;51029;51.058;13.826;2023-04-29T14:18:05;11.80;99.90
64620;DHT22;51029;51.058;13.826;2023-04-29T14:20:32;11.80;99.90
64620;DHT22;51029;51.058;13.826;2023-04-29T14:22:58;11.90;99.90
64620;DHT22;51029;51.058;13.826;2023-04-29T14:25:23;12.00;99.90
64620;DHT22;51029;51.058;13.826;2023-04-29T14:27:49;12.10;99.90
64620;DHT22;51029;51.058;13.826;2023-04-29T14:30:14;12.30;99.90
64620;DHT22;51029;51.058;13.826;2023-04-29T14:32:40;12.40;99.90
64620;DHT22;51029;51.058;13.826;2023-04-29T14:35:05;12.30;99.90
64620;DHT22;51029;51.058;13.826;2023-04-29T14:37:31;12.30;99.90
64620;DHT22;51029;51.058;13.826;2023-04-29T14:39:57;12.20;99.90
64620;DHT22;51029;51.058;13.826;2023-04-29T14:42:22;12.20;99.90
64620;DHT22;51029;51.058;13.826;2023-04-29T14:44:48;12.20;99.90
64620;DHT22;51029;51.058;13.826;2023-04-29T14:47:13;12.20;99.90
64620;DHT22;51029;51.058;13.826;2023-04-29T14:49:39;12.10;99.90
64620;DHT22;51029;51.058;13.826;2023-04-29T14:52:05;12.20;99.90
64620;DHT22;51029;51.058;13.826;2023-04-29T14:54:31;12.20;99.90
64620;DHT22;51029;51.058;13.826;2023-04-29T14:56:56;12.20;99.90
64620;DHT22;51029;51.058;13.826;2023-04-29T14:59:22;12.30;99.90
64620;DHT22;51029;51.058;13.826;2023-04-29T15:01:47;12.30;99.90
64620;DHT22;51029;51.058;13.826;2023-04-29T15:04:13;12.30;99.90
64620;DHT22;51029;51.058;13.826;2023-04-29T15:06:38;12.20;99.90
64620;DHT22;51029;51.058;13.826;2023-04-29T15:09:05;12.20;99.90
64620;DHT22;51029;51.058;13.826;2023-04-29T15:11:31;12.10;99.90
64620;DHT22;51029;51.058;13.826;2023-04-29T15:13:57;12.10;99.90
64620;DHT22;51029;51.058;13.826;2023-04-29T15:16:23;12.30;99.90
64620;DHT22;51029;51.058;13.826;2023-04-29T15:18:48;12.30;99.90
64620;DHT22;51029;51.058;13.826;2023-04-29T15:21:14;12.40;99.90
64620;DHT22;51029;51.058;13.826;2023-04-29T15:23:40;12.40;99.90
64620;DHT22;51029;51.058;13.826;2023-04-29T15:26:05;12.30;99.90
64620;DHT22;51029;51.058;13.826;2023-04-29T15:28:32;12.40;99.90
64620;DHT22;51029;51.058;13.826;2023-04-29T15:30:57;12.40;99.90
64620;DHT22;51029;51.058;13.826;2023-04-29T15:33:25;12.50;99.90
64620;DHT22;51029;51.058;13.826;2023-04-29T15:35:51;12.40;99.90
64620;DHT22;51029;51.058;13.826;2023-04-29T15:38:17;12.50;99.90
64620;DHT22;51029;51.058;13.826;2023-04-29T15:40:42;12.40;99.90
64620;DHT22;51029;51.058;13.826;2023-04-29T15:43:08;12.50;99.90